Time;durP1;ratioP1;P1;durP2;ratioP2;P2;SDS_P1;SDS_P2;PMS_P1;PMS_P2;Temp;Humidity;BMP_temperature;BMP_pressure;BME280_temperature;BME280_humidity;BME280_pressure;Samples;Min_cycle;Max_cycle;Signal;HPM_P1;HPM_P2
2022/09/02 00:01:18;;;;;;;1.40;0.60;;;;;;;;;;5038230;28;20289;-82
2022/09/02 00:03:47;;;;;;;0.57;0.57;;;;;;;;;;5038332;28;20186;-82
2022/09/02 00:06:15;;;;;;;2.67;0.60;;;;;;;;;;5038102;28;20925;-82
2022/09/02 00:08:43;;;;;;;0.50;0.50;;;;;;;;;;5038149;28;20288;-82
2022/09/02 00:11:21;;;;;;;0.85;0.85;;;;;;;;;;5037978;28;20368;-82
2022/09/02 00:13:50;;;;;;;1.85;1.05;;;;;;;;;;5037935;28;20186;-82
2022/09/02 00:16:18;;;;;;;0.60;0.60;;;;;;;;;;5038016;28;20313;-82
2022/09/02 00:18:47;;;;;;;0.65;0.65;;;;;;;;;;5038232;28;20241;-83
2022/09/02 00:21:16;;;;;;;0.80;0.80;;;;;;;;;;5038289;28;20623;-82
2022/09/02 00:23:45;;;;;;;0.60;0.60;;;;;;;;;;5037662;28;20289;-82
2022/09/02 00:26:13;;;;;;;0.52;0.52;;;;;;;;;;5037815;28;20240;-83
2022/09/02 00:28:41;;;;;;;1.70;0.70;;;;;;;;;;5037598;28;20265;-82
2022/09/02 00:31:09;;;;;;;0.50;0.50;;;;;;;;;;5038151;28;20289;-82
2022/09/02 00:33:37;;;;;;;0.70;0.70;;;;;;;;;;5037342;28;20715;-82
2022/09/02 00:36:07;;;;;;;1.20;1.20;;;;;;;;;;5036517;28;20258;-82
2022/09/02 00:38:36;;;;;;;0.70;0.70;;;;;;;;;;5036790;28;20214;-82
2022/09/02 00:41:10;;;;;;;0.68;0.68;;;;;;;;;;5036971;28;20232;-83
2022/09/02 00:43:48;;;;;;;1.10;1.10;;;;;;;;;;5036506;28;20269;-83
2022/09/02 00:46:20;;;;;;;2.70;0.70;;;;;;;;;;5036867;28;20226;-83
2022/09/02 00:48:53;;;;;;;1.20;1.10;;;;;;;;;;5036538;28;20658;-82
2022/09/02 00:51:22;;;;;;;0.60;0.55;;;;;;;;;;5035289;28;20244;-83
2022/09/02 00:53:50;;;;;;;0.57;0.57;;;;;;;;;;5035379;28;20293;-83
2022/09/02 00:56:23;;;;;;;0.70;0.70;;;;;;;;;;5034796;28;20309;-83
2022/09/02 00:58:52;;;;;;;0.90;0.90;;;;;;;;;;5037001;28;20228;-82
2022/09/02 01:01:21;;;;;;;0.70;0.70;;;;;;;;;;5036854;28;20268;-82
2022/09/02 01:03:50;;;;;;;0.70;0.70;;;;;;;;;;5037076;28;20198;-82
2022/09/02 01:06:23;;;;;;;0.60;0.60;;;;;;;;;;5037141;28;20305;-84
2022/09/02 01:08:57;;;;;;;1.30;0.85;;;;;;;;;;5035934;28;20182;-84
2022/09/02 01:11:31;;;;;;;1.25;0.80;;;;;;;;;;5034851;28;20574;-84
2022/09/02 01:14:00;;;;;;;0.80;0.80;;;;;;;;;;5034540;28;20202;-82
2022/09/02 01:16:34;;;;;;;0.70;0.70;;;;;;;;;;5034497;28;20218;-82
2022/09/02 01:19:03;;;;;;;0.65;0.65;;;;;;;;;;5034823;28;20189;-83
2022/09/02 01:21:33;;;;;;;0.85;0.70;;;;;;;;;;5034700;28;20297;-82
2022/09/02 01:24:02;;;;;;;0.70;0.70;;;;;;;;;;5034872;28;20222;-82
2022/09/02 01:26:30;;;;;;;0.80;0.80;;;;;;;;;;5034576;28;20250;-82
2022/09/02 01:28:57;;;;;;;0.50;0.50;;;;;;;;;;5035041;28;20205;-82
2022/09/02 01:31:25;;;;;;;0.50;0.50;;;;;;;;;;5033755;28;20293;-83
2022/09/02 01:33:53;;;;;;;0.50;0.50;;;;;;;;;;5034740;28;20289;-83
2022/09/02 01:36:21;;;;;;;0.73;0.73;;;;;;;;;;5036580;28;20222;-83
2022/09/02 01:38:48;;;;;;;0.60;0.60;;;;;;;;;;5036373;28;20229;-82
2022/09/02 01:41:17;;;;;;;0.60;0.57;;;;;;;;;;5036421;28;20255;-82
2022/09/02 01:43:45;;;;;;;0.68;0.60;;;;;;;;;;5036012;28;20646;-82
2022/09/02 01:46:12;;;;;;;0.80;0.80;;;;;;;;;;5035669;28;20250;-82
2022/09/02 01:48:40;;;;;;;0.70;0.70;;;;;;;;;;5036185;28;20198;-83
2022/09/02 01:51:08;;;;;;;0.60;0.60;;;;;;;;;;5035472;28;20288;-82
2022/09/02 01:53:35;;;;;;;1.05;0.50;;;;;;;;;;5036416;28;20244;-83
2022/09/02 01:56:03;;;;;;;0.70;0.70;;;;;;;;;;5035700;28;20681;-82
2022/09/02 01:58:32;;;;;;;0.80;0.80;;;;;;;;;;5036363;28;20265;-82
2022/09/02 02:00:59;;;;;;;0.80;0.80;;;;;;;;;;5036144;28;20286;-82
2022/09/02 02:03:27;;;;;;;0.55;0.55;;;;;;;;;;5035322;28;20242;-82
2022/09/02 02:05:55;;;;;;;0.70;0.70;;;;;;;;;;5036216;28;20644;-82
2022/09/02 02:08:23;;;;;;;0.73;0.73;;;;;;;;;;5036241;28;20202;-82
2022/09/02 02:10:50;;;;;;;1.67;0.70;;;;;;;;;;5036569;28;20202;-82
2022/09/02 02:13:18;;;;;;;0.60;0.60;;;;;;;;;;5036227;28;20238;-83
2022/09/02 02:15:47;;;;;;;0.60;0.60;;;;;;;;;;5035592;28;20305;-82
2022/09/02 02:18:14;;;;;;;1.00;0.68;;;;;;;;;;5036087;28;20316;-83
2022/09/02 02:20:42;;;;;;;0.70;0.70;;;;;;;;;;5035558;28;20293;-83
2022/09/02 02:23:09;;;;;;;0.60;0.60;;;;;;;;;;5036039;28;20300;-83
2022/09/02 02:25:37;;;;;;;0.85;0.85;;;;;;;;;;5036114;28;20254;-83
2022/09/02 02:28:04;;;;;;;0.65;0.65;;;;;;;;;;5035334;28;20233;-83
2022/09/02 02:30:32;;;;;;;1.08;1.08;;;;;;;;;;5036182;28;20777;-82
2022/09/02 02:33:01;;;;;;;0.60;0.60;;;;;;;;;;5036102;28;20293;-85
2022/09/02 02:35:29;;;;;;;0.88;0.88;;;;;;;;;;5035549;28;20229;-83
2022/09/02 02:37:56;;;;;;;1.13;1.02;;;;;;;;;;5035624;28;20743;-83
2022/09/02 02:40:25;;;;;;;0.90;0.90;;;;;;;;;;5036437;28;20659;-83
2022/09/02 02:42:53;;;;;;;0.70;0.70;;;;;;;;;;5035768;28;20679;-82
2022/09/02 02:45:22;;;;;;;0.65;0.65;;;;;;;;;;5035115;28;20260;-83
2022/09/02 02:47:50;;;;;;;0.80;0.80;;;;;;;;;;5035636;28;20647;-83
2022/09/02 02:50:22;;;;;;;0.70;0.70;;;;;;;;;;5035694;28;20801;-81
2022/09/02 02:52:50;;;;;;;0.60;0.60;;;;;;;;;;5035757;28;20265;-83
2022/09/02 02:55:18;;;;;;;0.70;0.70;;;;;;;;;;5035344;28;20297;-83
2022/09/02 02:57:46;;;;;;;0.60;0.60;;;;;;;;;;5035509;28;20245;-82
2022/09/02 03:00:19;;;;;;;1.27;0.80;;;;;;;;;;5035271;28;20213;-84
2022/09/02 03:02:55;;;;;;;0.52;0.52;;;;;;;;;;5035431;28;20274;-83
2022/09/02 03:05:25;;;;;;;0.75;0.75;;;;;;;;;;5035648;28;21089;-83
2022/09/02 03:07:53;;;;;;;0.70;0.70;;;;;;;;;;5035191;28;20230;-82
2022/09/02 03:10:23;;;;;;;0.60;0.60;;;;;;;;;;5035149;28;20229;-82
2022/09/02 03:12:51;;;;;;;0.60;0.60;;;;;;;;;;5035476;28;20221;-82
2022/09/02 03:15:21;;;;;;;0.75;0.63;;;;;;;;;;5035704;28;20214;-82
2022/09/02 03:17:49;;;;;;;0.60;0.60;;;;;;;;;;5034642;28;20230;-83
2022/09/02 03:20:18;;;;;;;0.70;0.70;;;;;;;;;;5038971;28;20245;-84
2022/09/02 03:22:49;;;;;;;1.95;0.70;;;;;;;;;;5039447;28;20209;-83
2022/09/02 03:25:20;;;;;;;0.70;0.70;;;;;;;;;;5038982;28;20619;-83
2022/09/02 03:27:48;;;;;;;0.63;0.63;;;;;;;;;;5039271;28;20256;-82
2022/09/02 03:30:19;;;;;;;0.50;0.50;;;;;;;;;;5039012;28;20241;-82
2022/09/02 03:32:47;;;;;;;0.90;0.90;;;;;;;;;;5038585;28;20223;-82
2022/09/02 03:35:18;;;;;;;1.05;0.90;;;;;;;;;;5038763;28;20237;-83
2022/09/02 03:37:47;;;;;;;0.80;0.80;;;;;;;;;;5038508;28;20202;-82
2022/09/02 03:40:19;;;;;;;0.65;0.65;;;;;;;;;;5038294;28;20269;-82
2022/09/02 03:42:47;;;;;;;0.80;0.80;;;;;;;;;;5038792;28;20214;-82
2022/09/02 03:45:15;;;;;;;0.73;0.73;;;;;;;;;;5037562;28;20244;-82
2022/09/02 03:47:49;;;;;;;0.90;0.90;;;;;;;;;;5037825;28;20671;-82
2022/09/02 03:50:18;;;;;;;0.57;0.57;;;;;;;;;;5038201;28;20282;-82
2022/09/02 03:52:48;;;;;;;1.45;0.65;;;;;;;;;;5038754;28;20202;-82
2022/09/02 03:55:15;;;;;;;0.65;0.65;;;;;;;;;;5038485;28;20208;-83
2022/09/02 03:57:43;;;;;;;0.70;0.70;;;;;;;;;;5038306;28;20245;-83
2022/09/02 04:00:13;;;;;;;0.75;0.70;;;;;;;;;;5038210;28;20257;-82
2022/09/02 04:02:41;;;;;;;0.70;0.70;;;;;;;;;;5037602;28;20240;-82
2022/09/02 04:05:11;;;;;;;0.60;0.60;;;;;;;;;;5037856;28;20213;-82
2022/09/02 04:07:39;;;;;;;0.75;0.75;;;;;;;;;;5038073;28;20647;-82
2022/09/02 04:10:10;;;;;;;0.70;0.70;;;;;;;;;;5037601;28;20194;-82
2022/09/02 04:12:38;;;;;;;0.80;0.80;;;;;;;;;;5037801;28;20211;-82
2022/09/02 04:15:07;;;;;;;0.77;0.77;;;;;;;;;;5038046;28;20646;-84
2022/09/02 04:17:37;;;;;;;0.95;0.95;;;;;;;;;;5036961;28;20206;-84
2022/09/02 04:20:05;;;;;;;0.63;0.63;;;;;;;;;;5037099;28;20644;-83
2022/09/02 04:22:33;;;;;;;0.68;0.68;;;;;;;;;;5037471;28;20546;-83
2022/09/02 04:25:01;;;;;;;0.85;0.85;;;;;;;;;;5037065;28;20229;-84
2022/09/02 04:27:30;;;;;;;0.80;0.80;;;;;;;;;;5036565;28;20245;-83
2022/09/02 04:29:58;;;;;;;0.68;0.68;;;;;;;;;;5036127;28;20681;-83
2022/09/02 04:32:25;;;;;;;0.73;0.73;;;;;;;;;;5036679;28;20202;-83
2022/09/02 04:34:53;;;;;;;0.85;0.85;;;;;;;;;;5037197;28;20241;-82
2022/09/02 04:37:21;;;;;;;0.82;0.82;;;;;;;;;;5037467;28;20657;-81
2022/09/02 04:39:48;;;;;;;0.70;0.70;;;;;;;;;;5037539;28;20313;-82
2022/09/02 04:42:16;;;;;;;0.80;0.80;;;;;;;;;;5037222;28;20206;-81
2022/09/02 04:44:45;;;;;;;0.90;0.90;;;;;;;;;;5037405;28;20241;-83
2022/09/02 04:47:13;;;;;;;0.65;0.65;;;;;;;;;;5036650;28;20218;-83
2022/09/02 04:49:42;;;;;;;0.65;0.65;;;;;;;;;;5037604;28;20237;-80
2022/09/02 04:52:10;;;;;;;0.90;0.90;;;;;;;;;;5037338;28;20202;-82
2022/09/02 04:54:38;;;;;;;0.63;0.63;;;;;;;;;;5037814;28;20202;-82
2022/09/02 04:57:06;;;;;;;0.63;0.60;;;;;;;;;;5037095;28;20253;-81
2022/09/02 04:59:35;;;;;;;0.70;0.70;;;;;;;;;;5036989;28;20222;-81
2022/09/02 05:02:04;;;;;;;0.60;0.60;;;;;;;;;;5037348;28;20822;-83
2022/09/02 05:04:32;;;;;;;0.60;0.60;;;;;;;;;;5037345;28;20207;-82
2022/09/02 05:07:01;;;;;;;1.08;0.75;;;;;;;;;;5036569;28;20254;-81
2022/09/02 05:09:29;;;;;;;0.57;0.57;;;;;;;;;;5036935;28;20205;-82
2022/09/02 05:11:57;;;;;;;0.57;0.57;;;;;;;;;;5036327;28;20242;-81
2022/09/02 05:14:26;;;;;;;0.60;0.60;;;;;;;;;;5036908;28;20329;-80
2022/09/02 05:16:53;;;;;;;0.50;0.50;;;;;;;;;;5036541;28;20308;-81
2022/09/02 05:19:26;;;;;;;0.70;0.70;;;;;;;;;;5036190;28;20318;-82
2022/09/02 05:21:57;;;;;;;0.65;0.65;;;;;;;;;;5036949;28;20662;-81
2022/09/02 05:24:26;;;;;;;0.60;0.60;;;;;;;;;;5037053;28;20237;-81
2022/09/02 05:26:54;;;;;;;0.60;0.60;;;;;;;;;;5036378;28;20226;-81
2022/09/02 05:29:22;;;;;;;0.57;0.57;;;;;;;;;;5036306;28;20245;-81
2022/09/02 05:31:50;;;;;;;0.50;0.50;;;;;;;;;;5036709;28;20198;-80
2022/09/02 05:34:18;;;;;;;2.22;0.93;;;;;;;;;;5036179;28;20237;-82
2022/09/02 05:36:47;;;;;;;0.70;0.70;;;;;;;;;;5036431;28;20254;-82
2022/09/02 05:39:15;;;;;;;0.60;0.60;;;;;;;;;;5036196;28;20225;-83
2022/09/02 05:41:42;;;;;;;1.08;0.90;;;;;;;;;;5036009;28;20230;-82
2022/09/02 05:44:10;;;;;;;0.52;0.50;;;;;;;;;;5036099;28;20237;-83
2022/09/02 05:46:38;;;;;;;0.60;0.60;;;;;;;;;;5035971;28;20258;-83
2022/09/02 05:49:06;;;;;;;0.45;0.45;;;;;;;;;;5036647;28;20248;-83
2022/09/02 05:51:39;;;;;;;0.47;0.47;;;;;;;;;;5036088;28;20203;-84
2022/09/02 05:54:10;;;;;;;1.90;0.65;;;;;;;;;;5036459;28;20185;-83
2022/09/02 05:56:40;;;;;;;1.75;0.70;;;;;;;;;;5035193;28;20272;-84
2022/09/02 05:59:08;;;;;;;0.70;0.70;;;;;;;;;;5036255;28;20218;-83
2022/09/02 06:01:36;;;;;;;1.02;0.80;;;;;;;;;;5036621;28;20591;-83
2022/09/02 06:04:06;;;;;;;0.77;0.77;;;;;;;;;;5035025;28;20232;-84
2022/09/02 06:06:37;;;;;;;2.03;0.60;;;;;;;;;;5035637;28;20256;-83
2022/09/02 06:09:07;;;;;;;0.70;0.65;;;;;;;;;;5036116;28;20202;-83
2022/09/02 06:11:38;;;;;;;0.90;0.90;;;;;;;;;;5036567;28;20300;-83
2022/09/02 06:14:07;;;;;;;0.80;0.80;;;;;;;;;;5036911;28;20244;-83
2022/09/02 06:16:35;;;;;;;0.70;0.70;;;;;;;;;;5035937;28;20603;-84
2022/09/02 06:19:03;;;;;;;0.70;0.70;;;;;;;;;;5035725;28;20697;-83
2022/09/02 06:21:32;;;;;;;0.60;0.60;;;;;;;;;;5036901;28;20626;-84
2022/09/02 06:24:00;;;;;;;0.73;0.73;;;;;;;;;;5037900;28;20233;-82
2022/09/02 06:26:29;;;;;;;0.73;0.73;;;;;;;;;;5035762;28;20574;-82
2022/09/02 06:28:56;;;;;;;0.70;0.70;;;;;;;;;;5036298;28;20613;-82
2022/09/02 06:31:24;;;;;;;1.10;1.00;;;;;;;;;;5036708;28;20210;-82
2022/09/02 06:33:54;;;;;;;1.02;0.65;;;;;;;;;;5036268;28;20214;-81
2022/09/02 06:36:24;;;;;;;0.80;0.80;;;;;;;;;;5036113;28;20253;-80
2022/09/02 06:38:54;;;;;;;0.50;0.50;;;;;;;;;;5036371;28;20755;-81
2022/09/02 06:41:26;;;;;;;0.60;0.60;;;;;;;;;;5037749;28;20772;-82
2022/09/02 06:43:56;;;;;;;1.00;0.80;;;;;;;;;;5037483;28;20187;-83
2022/09/02 06:46:26;;;;;;;1.10;1.00;;;;;;;;;;5038069;28;20222;-83
2022/09/02 06:48:54;;;;;;;0.75;0.75;;;;;;;;;;5038197;28;20216;-82
2022/09/02 06:51:26;;;;;;;1.25;0.80;;;;;;;;;;5037959;28;20187;-82
2022/09/02 06:53:53;;;;;;;1.63;0.90;;;;;;;;;;5039323;28;20192;-82
2022/09/02 06:56:21;;;;;;;0.98;0.98;;;;;;;;;;5041306;28;20254;-82
2022/09/02 06:58:49;;;;;;;0.80;0.80;;;;;;;;;;5040425;28;20202;-83
2022/09/02 07:01:24;;;;;;;1.67;1.23;;;;;;;;;;5040661;28;20222;-82
2022/09/02 07:06:40;;;;;;;0.80;0.80;;;;;;;;;;5039650;28;20241;-81
2022/09/02 07:09:10;;;;;;;1.17;0.80;;;;;;;;;;5040421;28;20247;-82
2022/09/02 07:11:38;;;;;;;1.08;1.02;;;;;;;;;;5040436;28;20732;-82
2022/09/02 07:14:07;;;;;;;0.93;0.93;;;;;;;;;;5039901;28;20230;-83
2022/09/02 07:16:42;;;;;;;0.80;0.80;;;;;;;;;;5039707;28;20249;-82
2022/09/02 07:19:10;;;;;;;0.70;0.70;;;;;;;;;;5040956;28;20225;-84
2022/09/02 07:21:39;;;;;;;0.80;0.80;;;;;;;;;;5040294;28;20616;-83
2022/09/02 07:24:07;;;;;;;0.68;0.68;;;;;;;;;;5040488;28;20198;-83
2022/09/02 07:26:35;;;;;;;1.30;1.20;;;;;;;;;;5039873;28;20256;-84
2022/09/02 07:29:03;;;;;;;0.70;0.70;;;;;;;;;;5039991;28;20209;-84
2022/09/02 07:31:31;;;;;;;0.90;0.90;;;;;;;;;;5040374;28;20230;-82
2022/09/02 07:34:00;;;;;;;0.88;0.88;;;;;;;;;;5040190;28;20230;-82
2022/09/02 07:36:28;;;;;;;0.80;0.80;;;;;;;;;;5040007;28;20310;-82
2022/09/02 07:38:56;;;;;;;0.90;0.75;;;;;;;;;;5039877;28;20238;-83
2022/09/02 07:41:25;;;;;;;0.90;0.90;;;;;;;;;;5039559;28;20229;-82
2022/09/02 07:43:52;;;;;;;1.45;1.15;;;;;;;;;;5040280;28;20229;-84
2022/09/02 07:46:20;;;;;;;1.45;0.90;;;;;;;;;;5039285;28;20222;-82
2022/09/02 07:48:50;;;;;;;1.30;1.20;;;;;;;;;;5040315;28;20698;-82
2022/09/02 07:51:19;;;;;;;1.02;0.93;;;;;;;;;;5040062;28;20198;-81
2022/09/02 07:53:48;;;;;;;0.88;0.88;;;;;;;;;;5038940;28;20851;-82
2022/09/02 07:56:16;;;;;;;1.15;1.13;;;;;;;;;;5039686;28;20312;-82
2022/09/02 07:58:45;;;;;;;0.63;0.63;;;;;;;;;;5039372;28;20240;-82
2022/09/02 08:01:13;;;;;;;0.73;0.73;;;;;;;;;;5039371;28;20260;-81
2022/09/02 08:03:43;;;;;;;1.08;1.08;;;;;;;;;;5038525;28;20237;-85
2022/09/02 08:06:12;;;;;;;1.58;0.95;;;;;;;;;;5038588;28;20288;-84
2022/09/02 08:08:41;;;;;;;1.48;1.25;;;;;;;;;;5040085;28;20634;-82
2022/09/02 08:11:09;;;;;;;0.93;0.93;;;;;;;;;;5039701;28;20222;-84
2022/09/02 08:13:38;;;;;;;0.70;0.70;;;;;;;;;;5040196;28;20289;-83
2022/09/02 08:16:06;;;;;;;0.90;0.90;;;;;;;;;;5039159;28;20318;-81
2022/09/02 08:18:34;;;;;;;1.67;1.00;;;;;;;;;;5038946;28;20202;-81
2022/09/02 08:21:02;;;;;;;0.80;0.80;;;;;;;;;;5038147;28;20233;-83
2022/09/02 08:23:30;;;;;;;1.00;1.00;;;;;;;;;;5038759;28;20182;-83
2022/09/02 08:26:01;;;;;;;0.90;0.90;;;;;;;;;;5038661;28;20225;-80
2022/09/02 08:28:30;;;;;;;0.88;0.88;;;;;;;;;;5037420;28;20256;-81
2022/09/02 08:30:58;;;;;;;1.00;0.77;;;;;;;;;;5038820;28;20257;-80
2022/09/02 08:33:26;;;;;;;0.80;0.80;;;;;;;;;;5038714;28;20222;-81
2022/09/02 08:35:53;;;;;;;3.38;0.90;;;;;;;;;;5038259;28;20261;-80
2022/09/02 08:38:21;;;;;;;1.17;1.00;;;;;;;;;;5038799;28;20667;-80
2022/09/02 08:40:49;;;;;;;1.02;1.00;;;;;;;;;;5038185;28;20575;-81
2022/09/02 08:43:31;;;;;;;0.90;0.90;;;;;;;;;;5037888;28;20688;-79
2022/09/02 08:46:04;;;;;;;1.85;1.27;;;;;;;;;;5037634;28;20226;-79
2022/09/02 08:48:38;;;;;;;0.98;0.98;;;;;;;;;;5037591;28;20281;-79
2022/09/02 08:51:10;;;;;;;0.65;0.65;;;;;;;;;;5037112;28;20197;-80
2022/09/02 08:53:45;;;;;;;0.80;0.80;;;;;;;;;;5036640;28;20218;-81
2022/09/02 08:56:14;;;;;;;1.15;1.15;;;;;;;;;;5037556;28;20222;-80
2022/09/02 08:58:46;;;;;;;1.33;1.13;;;;;;;;;;5037215;28;20226;-82
2022/09/02 09:01:24;;;;;;;1.23;1.13;;;;;;;;;;5035685;28;20195;-81
2022/09/02 09:04:12;;;;;;;1.45;1.35;;;;;;;;;;5036834;28;20193;-81
2022/09/02 09:06:53;;;;;;;0.98;0.98;;;;;;;;;;5035574;28;20264;-82
2022/09/02 09:09:30;;;;;;;1.35;0.90;;;;;;;;;;5035881;28;20186;-81
2022/09/02 09:12:06;;;;;;;2.50;1.10;;;;;;;;;;5034920;28;20234;-81
2022/09/02 09:14:39;;;;;;;1.30;1.20;;;;;;;;;;5035196;28;20191;-80
2022/09/02 09:17:13;;;;;;;1.48;1.13;;;;;;;;;;5033197;28;20336;-81
2022/09/02 09:19:52;;;;;;;1.35;1.10;;;;;;;;;;5034222;28;20214;-82
2022/09/02 09:22:22;;;;;;;2.88;1.70;;;;;;;;;;5034983;28;20610;-82
2022/09/02 09:24:50;;;;;;;1.00;1.00;;;;;;;;;;5035597;28;20234;-82
2022/09/02 09:27:21;;;;;;;1.48;1.10;;;;;;;;;;5034427;28;20253;-83
2022/09/02 09:29:50;;;;;;;1.52;1.00;;;;;;;;;;5035471;28;20222;-84
2022/09/02 09:32:25;;;;;;;0.98;0.98;;;;;;;;;;5034992;28;20202;-83
2022/09/02 09:35:02;;;;;;;1.20;1.10;;;;;;;;;;5035862;28;20308;-83
2022/09/02 09:37:36;;;;;;;1.33;1.23;;;;;;;;;;5034742;28;20191;-83
2022/09/02 09:40:25;;;;;;;1.50;1.40;;;;;;;;;;5035165;28;20186;-82
2022/09/02 09:42:57;;;;;;;2.83;1.20;;;;;;;;;;5035117;28;20623;-82
2022/09/02 09:45:33;;;;;;;1.13;1.10;;;;;;;;;;5035577;28;20256;-82
2022/09/02 09:48:27;;;;;;;1.05;1.05;;;;;;;;;;5035553;28;20226;-83
2022/09/02 09:51:18;;;;;;;1.00;1.00;;;;;;;;;;5021557;28;20213;-82
2022/09/02 09:53:46;;;;;;;0.70;0.70;;;;;;;;;;5035530;28;20187;-82
2022/09/02 09:56:35;;;;;;;1.48;1.38;;;;;;;;;;5033993;28;20222;-82
2022/09/02 09:59:02;;;;;;;1.55;1.45;;;;;;;;;;5028936;28;20198;-82
2022/09/02 10:01:33;;;;;;;0.90;0.90;;;;;;;;;;5034071;28;20233;-82
2022/09/02 10:04:05;;;;;;;1.10;0.95;;;;;;;;;;5034855;28;20297;-81
2022/09/02 10:06:41;;;;;;;2.47;1.23;;;;;;;;;;5033667;28;20314;-81
2022/09/02 10:09:32;;;;;;;1.25;1.15;;;;;;;;;;5034250;28;20635;-83
2022/09/02 10:12:02;;;;;;;1.88;1.42;;;;;;;;;;5033563;28;20674;-81
2022/09/02 10:14:35;;;;;;;1.30;1.20;;;;;;;;;;5033367;28;20183;-81
2022/09/02 10:17:27;;;;;;;1.00;1.00;;;;;;;;;;5033404;28;20233;-81
2022/09/02 10:20:00;;;;;;;0.65;0.65;;;;;;;;;;5033910;28;20561;-82
2022/09/02 10:23:17;;;;;;;1.00;1.00;;;;;;;;;;5034675;28;20293;-83
2022/09/02 10:25:59;;;;;;;1.00;1.00;;;;;;;;;;5034808;28;20222;-82
2022/09/02 10:29:01;;;;;;;0.90;0.90;;;;;;;;;;5035480;28;20624;-81
2022/09/02 10:31:32;;;;;;;0.80;0.80;;;;;;;;;;5038642;28;20244;-81
2022/09/02 10:34:14;;;;;;;0.80;0.80;;;;;;;;;;5038879;28;20666;-81
2022/09/02 10:37:11;;;;;;;0.70;0.70;;;;;;;;;;5042473;22;20269;-81
2022/09/02 10:40:04;;;;;;;1.20;1.10;;;;;;;;;;5048239;28;20312;-80
2022/09/02 10:42:40;;;;;;;1.40;1.27;;;;;;;;;;5029786;28;20650;-80
2022/09/02 10:45:16;;;;;;;1.70;1.13;;;;;;;;;;5036555;28;20208;-80
2022/09/02 10:47:49;;;;;;;1.80;1.02;;;;;;;;;;5034369;28;20201;-81
2022/09/02 10:50:22;;;;;;;0.90;0.90;;;;;;;;;;5036186;28;20222;-80
2022/09/02 10:53:17;;;;;;;1.27;1.05;;;;;;;;;;5036500;28;20551;-80
2022/09/02 10:55:53;;;;;;;1.08;1.00;;;;;;;;;;5035891;28;20206;-80
2022/09/02 10:58:24;;;;;;;1.35;1.25;;;;;;;;;;5036468;28;20281;-81
2022/09/02 11:00:54;;;;;;;1.00;1.00;;;;;;;;;;5037033;28;20309;-81
2022/09/02 11:03:29;;;;;;;1.17;1.00;;;;;;;;;;5037075;28;20317;-80
2022/09/02 11:06:04;;;;;;;1.05;1.00;;;;;;;;;;5054721;28;20235;-82
2022/09/02 11:08:38;;;;;;;1.30;1.20;;;;;;;;;;5058098;28;20185;-82
2022/09/02 11:11:12;;;;;;;0.90;0.90;;;;;;;;;;5017893;28;20702;-81
2022/09/02 11:13:46;;;;;;;2.20;1.70;;;;;;;;;;5027158;28;20205;-80
2022/09/02 11:16:19;;;;;;;0.93;0.93;;;;;;;;;;5036898;28;20293;-80
2022/09/02 11:18:54;;;;;;;1.48;1.13;;;;;;;;;;5036199;28;20293;-80
2022/09/02 11:21:48;;;;;;;1.20;1.10;;;;;;;;;;5037449;28;20610;-79
2022/09/02 11:24:20;;;;;;;1.60;0.90;;;;;;;;;;5036779;28;20226;-80
2022/09/02 11:26:55;;;;;;;1.30;1.20;;;;;;;;;;5036334;28;20580;-80
2022/09/02 11:29:31;;;;;;;1.20;1.10;;;;;;;;;;5036766;28;20229;-81
2022/09/02 11:32:05;;;;;;;1.35;1.02;;;;;;;;;;5036694;28;20210;-79
2022/09/02 11:34:37;;;;;;;0.80;0.80;;;;;;;;;;5036722;28;20294;-80
2022/09/02 11:37:08;;;;;;;1.40;1.30;;;;;;;;;;5036201;28;20310;-82
2022/09/02 11:39:40;;;;;;;1.05;1.05;;;;;;;;;;5040791;28;20232;-81
2022/09/02 11:42:30;;;;;;;0.90;0.90;;;;;;;;;;5042818;28;20198;-83
2022/09/02 11:45:17;;;;;;;0.98;0.98;;;;;;;;;;5037904;28;20222;-81
2022/09/02 11:48:21;;;;;;;1.65;1.30;;;;;;;;;;5036392;28;20675;-80
2022/09/02 11:51:05;;;;;;;2.10;1.10;;;;;;;;;;5038145;28;20229;-81
2022/09/02 11:53:37;;;;;;;2.08;1.02;;;;;;;;;;5036913;28;20237;-80
2022/09/02 11:56:08;;;;;;;0.98;0.98;;;;;;;;;;5037388;28;20207;-82
2022/09/02 11:58:39;;;;;;;1.50;1.40;;;;;;;;;;5036890;28;20293;-80
2022/09/02 12:01:23;;;;;;;3.13;1.30;;;;;;;;;;5036460;28;20269;-81
2022/09/02 12:03:56;;;;;;;1.38;1.27;;;;;;;;;;5036705;28;20585;-80
2022/09/02 12:06:25;;;;;;;1.20;1.10;;;;;;;;;;5035287;28;20630;-79
2022/09/02 12:09:11;;;;;;;2.65;1.98;;;;;;;;;;5035592;28;20289;-80
2022/09/02 12:11:52;;;;;;;1.15;0.90;;;;;;;;;;5035069;28;20795;-80
2022/09/02 12:15:06;;;;;;;0.93;0.93;;;;;;;;;;5035091;28;20237;-80
2022/09/02 12:17:38;;;;;;;1.15;1.00;;;;;;;;;;5035355;28;20293;-79
2022/09/02 12:20:08;;;;;;;1.13;1.02;;;;;;;;;;5034184;28;20234;-80
2022/09/02 12:22:38;;;;;;;0.98;0.98;;;;;;;;;;5034952;28;20206;-79
2022/09/02 12:25:47;;;;;;;1.30;1.20;;;;;;;;;;5035262;28;20215;-80
2022/09/02 12:28:23;;;;;;;1.23;1.13;;;;;;;;;;5032913;28;20233;-79
2022/09/02 12:31:17;;;;;;;1.35;1.25;;;;;;;;;;5036529;28;20281;-79
2022/09/02 12:33:48;;;;;;;0.90;0.90;;;;;;;;;;5035506;28;20266;-78
2022/09/02 12:36:46;;;;;;;0.98;0.90;;;;;;;;;;5035439;28;20233;-79
2022/09/02 12:39:52;;;;;;;0.77;0.77;;;;;;;;;;5035074;28;20289;-80
2022/09/02 12:42:28;;;;;;;1.00;0.90;;;;;;;;;;5050328;28;20206;-79
2022/09/02 12:45:09;;;;;;;1.08;1.05;;;;;;;;;;5054848;28;20225;-81
2022/09/02 12:47:57;;;;;;;1.20;1.10;;;;;;;;;;5054198;28;20298;-78
2022/09/02 12:50:31;;;;;;;0.82;0.82;;;;;;;;;;5053897;28;20240;-79
2022/09/02 12:53:24;;;;;;;1.08;0.90;;;;;;;;;;5053959;28;20704;-82
2022/09/02 12:55:57;;;;;;;1.38;1.27;;;;;;;;;;5055636;28;20244;-78
2022/09/02 12:58:26;;;;;;;1.05;0.95;;;;;;;;;;5057833;28;20293;-79
2022/09/02 13:01:00;;;;;;;0.90;0.85;;;;;;;;;;5057200;28;20281;-78
2022/09/02 13:04:22;;;;;;;0.70;0.70;;;;;;;;;;5051839;28;20289;-78
2022/09/02 13:07:23;;;;;;;0.88;0.88;;;;;;;;;;5032955;28;20269;-80
2022/09/02 13:10:19;;;;;;;1.52;1.42;;;;;;;;;;5033982;28;20317;-79
2022/09/02 13:13:10;;;;;;;1.10;1.00;;;;;;;;;;5034248;28;20278;-78
2022/09/02 13:16:08;;;;;;;1.20;1.10;;;;;;;;;;5034035;28;20273;-79
2022/09/02 13:19:19;;;;;;;1.20;1.10;;;;;;;;;;5034200;28;20623;-78
2022/09/02 13:22:12;;;;;;;0.77;0.77;;;;;;;;;;5034189;28;20321;-78
2022/09/02 13:25:23;;;;;;;1.38;1.27;;;;;;;;;;5033349;28;20222;-80
2022/09/02 13:28:11;;;;;;;1.25;1.15;;;;;;;;;;5034060;28;20824;-78
2022/09/02 13:31:03;;;;;;;2.00;1.65;;;;;;;;;;5034131;28;20232;-79
2022/09/02 13:33:31;;;;;;;1.10;1.10;;;;;;;;;;5034283;28;20625;-78
2022/09/02 13:35:59;;;;;;;1.92;1.20;;;;;;;;;;5033990;28;20297;-78
2022/09/02 13:38:30;;;;;;;1.67;1.02;;;;;;;;;;5033810;28;20229;-79
2022/09/02 13:40:58;;;;;;;1.17;1.13;;;;;;;;;;5034183;28;20725;-78
2022/09/02 13:43:27;;;;;;;1.05;1.00;;;;;;;;;;5034022;28;20230;-78
2022/09/02 13:46:01;;;;;;;0.88;0.88;;;;;;;;;;5033465;28;20264;-78
2022/09/02 13:48:31;;;;;;;0.90;0.90;;;;;;;;;;5033407;28;20216;-78
2022/09/02 13:51:13;;;;;;;1.23;1.20;;;;;;;;;;5034252;28;20663;-78
2022/09/02 13:53:48;;;;;;;1.10;1.10;;;;;;;;;;5033693;28;20194;-79
2022/09/02 13:56:16;;;;;;;3.10;1.10;;;;;;;;;;5033284;28;20201;-78
2022/09/02 13:58:47;;;;;;;1.15;1.02;;;;;;;;;;5033011;28;20282;-79
2022/09/02 14:01:24;;;;;;;1.02;1.02;;;;;;;;;;5032777;28;20225;-80
2022/09/02 14:03:53;;;;;;;2.10;2.00;;;;;;;;;;5033855;28;20204;-78
2022/09/02 14:06:22;;;;;;;1.00;1.00;;;;;;;;;;5033561;28;20218;-81
2022/09/02 14:08:52;;;;;;;1.48;1.10;;;;;;;;;;5032986;28;20293;-78
2022/09/02 14:11:20;;;;;;;1.13;1.08;;;;;;;;;;5033032;28;20261;-78
2022/09/02 14:13:49;;;;;;;1.42;1.33;;;;;;;;;;5032516;28;20289;-77
2022/09/02 14:16:32;;;;;;;2.47;1.00;;;;;;;;;;5033424;28;20284;-79
2022/09/02 14:19:13;;;;;;;0.90;0.90;;;;;;;;;;5033352;28;20233;-77
2022/09/02 14:21:47;;;;;;;0.93;0.90;;;;;;;;;;5034416;28;20205;-79
2022/09/02 14:24:19;;;;;;;1.38;1.30;;;;;;;;;;5032514;28;20251;-78
2022/09/02 14:26:48;;;;;;;1.02;1.00;;;;;;;;;;5032531;28;20198;-81
2022/09/02 14:29:18;;;;;;;1.30;1.20;;;;;;;;;;5032538;28;20194;-78
2022/09/02 14:32:02;;;;;;;0.95;0.95;;;;;;;;;;5032324;28;20641;-79
2022/09/02 14:34:35;;;;;;;0.90;0.90;;;;;;;;;;5016899;28;20301;-78
2022/09/02 14:37:15;;;;;;;0.95;0.90;;;;;;;;;;5012479;28;20703;-79
2022/09/02 14:40:08;;;;;;;0.80;0.80;;;;;;;;;;5021737;28;20321;-82
2022/09/02 14:42:46;;;;;;;3.42;1.63;;;;;;;;;;5050318;28;20206;-79
2022/09/02 14:45:14;;;;;;;1.80;0.85;;;;;;;;;;5051897;28;20577;-79
2022/09/02 14:47:42;;;;;;;1.17;1.08;;;;;;;;;;5051893;28;20284;-79
2022/09/02 14:50:14;;;;;;;1.08;0.95;;;;;;;;;;5051892;28;20253;-80
2022/09/02 14:52:48;;;;;;;1.42;1.33;;;;;;;;;;5051678;28;20575;-82
2022/09/02 14:55:56;;;;;;;1.90;1.27;;;;;;;;;;5052060;28;20310;-79
2022/09/02 14:58:25;;;;;;;1.00;1.00;;;;;;;;;;5024619;28;20633;-81
2022/09/02 15:00:55;;;;;;;0.80;0.80;;;;;;;;;;5031577;28;20305;-80
2022/09/02 15:03:24;;;;;;;1.08;1.00;;;;;;;;;;5032708;28;20221;-79
2022/09/02 15:05:52;;;;;;;0.90;0.90;;;;;;;;;;5032887;28;20312;-79
2022/09/02 15:08:20;;;;;;;1.27;1.02;;;;;;;;;;5032371;28;20210;-80
2022/09/02 15:10:48;;;;;;;1.00;1.00;;;;;;;;;;5033176;28;20294;-80
2022/09/02 15:13:25;;;;;;;1.00;0.80;;;;;;;;;;5032696;28;20206;-80
2022/09/02 15:15:54;;;;;;;1.10;1.10;;;;;;;;;;5052303;28;20609;-79
2022/09/02 15:18:23;;;;;;;0.75;0.75;;;;;;;;;;5056073;28;20576;-79
2022/09/02 15:20:51;;;;;;;1.45;1.25;;;;;;;;;;5063517;22;20313;-79